sensor_id;sensor_type;location;lat;lon;timestamp;pressure;altitude;pressure_sealevel;temperature;humidity
9281;BME280;4679;47.966;7.958;2023-12-29T07:46:26;97275.44;;;10.35;75.82
9281;BME280;4679;47.966;7.958;2023-12-29T07:48:27;97276.53;;;10.39;75.69
9281;BME280;4679;47.966;7.958;2023-12-29T07:50:30;97268.13;;;10.42;74.97
9281;BME280;4679;47.966;7.958;2023-12-29T07:52:32;97263.38;;;10.44;75.46
9281;BME280;4679;47.966;7.958;2023-12-29T07:54:34;97264.53;;;10.48;75.01
9281;BME280;4679;47.966;7.958;2023-12-29T07:56:35;97258.97;;;10.50;74.60
9281;BME280;4679;47.966;7.958;2023-12-29T07:58:37;97268.31;;;10.52;74.60
9281;BME280;4679;47.966;7.958;2023-12-29T08:00:45;97272.59;;;10.53;75.36
9281;BME280;4679;47.966;7.958;2023-12-29T08:02:48;97268.84;;;10.54;74.43
9281;BME280;4679;47.966;7.958;2023-12-29T08:04:50;97264.44;;;10.60;75.32
9281;BME280;4679;47.966;7.958;2023-12-29T08:06:52;97264.22;;;10.62;74.93
9281;BME280;4679;47.966;7.958;2023-12-29T08:08:54;97251.41;;;10.58;74.81
9281;BME280;4679;47.966;7.958;2023-12-29T08:10:55;97277.63;;;10.55;74.57
9281;BME280;4679;47.966;7.958;2023-12-29T08:12:57;97268.63;;;10.56;75.03
9281;BME280;4679;47.966;7.958;2023-12-29T08:14:59;97277.72;;;10.60;74.37
9281;BME280;4679;47.966;7.958;2023-12-29T08:17:00;97266.41;;;10.65;74.93
9281;BME280;4679;47.966;7.958;2023-12-29T08:19:03;97291.41;;;10.69;73.96
9281;BME280;4679;47.966;7.958;2023-12-29T08:21:05;97282.72;;;10.73;75.05
9281;BME280;4679;47.966;7.958;2023-12-29T08:23:06;97272.91;;;10.74;74.85
9281;BME280;4679;47.966;7.958;2023-12-29T08:25:08;97272.91;;;10.74;73.76
9281;BME280;4679;47.966;7.958;2023-12-29T08:27:12;97284.31;;;10.74;74.25
9281;BME280;4679;47.966;7.958;2023-12-29T08:29:14;97280.88;;;10.74;74.19
9281;BME280;4679;47.966;7.958;2023-12-29T08:31:17;97289.16;;;10.77;73.79
9281;BME280;4679;47.966;7.958;2023-12-29T08:33:19;97288.94;;;10.79;73.48
9281;BME280;4679;47.966;7.958;2023-12-29T08:35:21;97287.63;;;10.81;73.68
9281;BME280;4679;47.966;7.958;2023-12-29T08:37:23;97306.53;;;10.85;73.65
9281;BME280;4679;47.966;7.958;2023-12-29T08:39:24;97289.56;;;10.86;74.26
9281;BME280;4679;47.966;7.958;2023-12-29T08:41:26;97300.75;;;10.88;74.11
9281;BME280;4679;47.966;7.958;2023-12-29T08:43:27;97300.50;;;10.89;74.06
9281;BME280;4679;47.966;7.958;2023-12-29T08:45:29;97286.75;;;10.92;73.95
9281;BME280;4679;47.966;7.958;2023-12-29T08:47:30;97297.13;;;10.94;74.35
9281;BME280;4679;47.966;7.958;2023-12-29T08:49:32;97294.47;;;10.94;73.86
9281;BME280;4679;47.966;7.958;2023-12-29T08:51:35;97298.97;;;10.93;73.95
9281;BME280;4679;47.966;7.958;2023-12-29T08:53:37;97307.75;;;10.94;73.10
9281;BME280;4679;47.966;7.958;2023-12-29T08:55:38;97299.78;;;10.94;73.21
9281;BME280;4679;47.966;7.958;2023-12-29T08:57:39;97291.34;;;10.97;72.66
9281;BME280;4679;47.966;7.958;2023-12-29T08:59:41;97292.72;;;11.00;72.52
9281;BME280;4679;47.966;7.958;2023-12-29T09:01:41;97299.06;;;10.99;72.82
9281;BME280;4679;47.966;7.958;2023-12-29T09:03:43;97303.56;;;10.98;73.64
9281;BME280;4679;47.966;7.958;2023-12-29T09:05:43;97299.13;;;11.04;73.05
9281;BME280;4679;47.966;7.958;2023-12-29T09:07:46;97301.56;;;11.05;73.56
9281;BME280;4679;47.966;7.958;2023-12-29T09:09:48;97303.97;;;11.07;72.70
9281;BME280;4679;47.966;7.958;2023-12-29T09:11:49;97300.75;;;11.05;73.26
9281;BME280;4679;47.966;7.958;2023-12-29T09:13:51;97305.81;;;11.06;73.91
9281;BME280;4679;47.966;7.958;2023-12-29T09:15:51;97301.88;;;11.09;73.66
9281;BME280;4679;47.966;7.958;2023-12-29T09:17:53;97287.81;;;11.08;73.17
9281;BME280;4679;47.966;7.958;2023-12-29T09:19:53;97297.03;;;11.06;73.55
9281;BME280;4679;47.966;7.958;2023-12-29T09:21:55;97287.81;;;11.08;73.10
9281;BME280;4679;47.966;7.958;2023-12-29T09:23:58;97282.56;;;11.13;72.73
9281;BME280;4679;47.966;7.958;2023-12-29T09:25:59;97285.22;;;11.13;72.27
9281;BME280;4679;47.966;7.958;2023-12-29T09:28:01;97286.28;;;11.12;72.83
9281;BME280;4679;47.966;7.958;2023-12-29T09:30:02;97301.97;;;11.14;72.31
9281;BME280;4679;47.966;7.958;2023-12-29T09:32:05;97298.28;;;11.15;73.01
9281;BME280;4679;47.966;7.958;2023-12-29T09:34:07;97308.63;;;11.16;72.65
9281;BME280;4679;47.966;7.958;2023-12-29T09:36:09;97306.22;;;11.15;72.54
9281;BME280;4679;47.966;7.958;2023-12-29T09:38:10;97312.84;;;11.12;72.86
9281;BME280;4679;47.966;7.958;2023-12-29T09:40:13;97292.31;;;11.08;73.29
9281;BME280;4679;47.966;7.958;2023-12-29T09:42:21;97301.72;;;10.99;73.67
9281;BME280;4679;47.966;7.958;2023-12-29T09:44:24;97309.75;;;10.87;72.79
9281;BME280;4679;47.966;7.958;2023-12-29T09:46:32;97305.75;;;10.84;74.39
9281;BME280;4679;47.966;7.958;2023-12-29T09:48:34;97306.69;;;10.78;73.50
9281;BME280;4679;47.966;7.958;2023-12-29T09:50:38;97315.69;;;10.77;73.70
9281;BME280;4679;47.966;7.958;2023-12-29T09:52:40;97314.44;;;10.80;73.84
9281;BME280;4679;47.966;7.958;2023-12-29T09:54:41;97309.59;;;10.77;73.44
9281;BME280;4679;47.966;7.958;2023-12-29T09:56:44;97310.63;;;10.76;73.89
9281;BME280;4679;47.966;7.958;2023-12-29T09:58:47;97312.47;;;10.75;74.70
9281;BME280;4679;47.966;7.958;2023-12-29T10:00:49;97315.38;;;10.74;73.88
9281;BME280;4679;47.966;7.958;2023-12-29T10:02:51;97319.63;;;10.75;74.67
9281;BME280;4679;47.966;7.958;2023-12-29T10:04:54;97321.81;;;10.78;74.91
9281;BME280;4679;47.966;7.958;2023-12-29T10:06:57;97326.66;;;10.81;73.92
9281;BME280;4679;47.966;7.958;2023-12-29T10:09:03;97299.13;;;10.87;74.20
9281;BME280;4679;47.966;7.958;2023-12-29T10:11:06;97305.81;;;10.89;74.58
9281;BME280;4679;47.966;7.958;2023-12-29T10:13:11;97295.53;;;10.93;73.44
9281;BME280;4679;47.966;7.958;2023-12-29T10:15:19;97298.28;;;10.98;74.59
9281;BME280;4679;47.966;7.958;2023-12-29T10:17:27;97297.28;;;11.04;73.58
9281;BME280;4679;47.966;7.958;2023-12-29T10:19:38;97285.16;;;11.08;73.52
9281;BME280;4679;47.966;7.958;2023-12-29T10:21:46;97283.91;;;11.16;73.59
9281;BME280;4679;47.966;7.958;2023-12-29T10:23:53;97285.63;;;11.22;73.69
9281;BME280;4679;47.966;7.958;2023-12-29T10:25:57;97289.97;;;11.28;72.98
9281;BME280;4679;47.966;7.958;2023-12-29T10:27:58;97272.19;;;11.28;73.54
9281;BME280;4679;47.966;7.958;2023-12-29T10:30:01;97265.06;;;11.34;73.95
9281;BME280;4679;47.966;7.958;2023-12-29T10:32:04;97260.63;;;11.40;72.75
9281;BME280;4679;47.966;7.958;2023-12-29T10:34:19;97267.06;;;11.44;72.67
9281;BME280;4679;47.966;7.958;2023-12-29T10:36:21;97275.56;;;11.46;73.22
9281;BME280;4679;47.966;7.958;2023-12-29T10:38:23;97275.91;;;11.49;72.56
9281;BME280;4679;47.966;7.958;2023-12-29T10:40:23;97285.47;;;11.50;73.56
9281;BME280;4679;47.966;7.958;2023-12-29T10:42:26;97278.31;;;11.51;72.88
9281;BME280;4679;47.966;7.958;2023-12-29T10:44:29;97274.63;;;11.52;72.91
9281;BME280;4679;47.966;7.958;2023-12-29T10:46:32;97272.03;;;11.57;72.89
9281;BME280;4679;47.966;7.958;2023-12-29T10:48:34;97263.31;;;11.61;73.32
9281;BME280;4679;47.966;7.958;2023-12-29T10:50:44;97269.81;;;11.71;72.41
9281;BME280;4679;47.966;7.958;2023-12-29T10:52:46;97267.97;;;11.71;72.51
9281;BME280;4679;47.966;7.958;2023-12-29T10:54:47;97274.00;;;11.67;72.77
9281;BME280;4679;47.966;7.958;2023-12-29T10:57:00;97268.88;;;11.60;72.13
9281;BME280;4679;47.966;7.958;2023-12-29T10:59:03;97262.22;;;11.57;71.93
9281;BME280;4679;47.966;7.958;2023-12-29T11:01:14;97261.88;;;11.54;72.89
9281;BME280;4679;47.966;7.958;2023-12-29T11:03:21;97257.63;;;11.53;72.10
9281;BME280;4679;47.966;7.958;2023-12-29T11:05:25;97248.59;;;11.54;72.64
9281;BME280;4679;47.966;7.958;2023-12-29T11:07:31;97257.63;;;11.53;72.23
9281;BME280;4679;47.966;7.958;2023-12-29T11:09:33;97248.53;;;11.49;71.93
9281;BME280;4679;47.966;7.958;2023-12-29T11:11:35;97248.47;;;11.44;71.85
9281;BME280;4679;47.966;7.958;2023-12-29T11:13:36;97252.75;;;11.45;72.73
9281;BME280;4679;47.966;7.958;2023-12-29T11:15:42;97249.28;;;11.44;72.63
9281;BME280;4679;47.966;7.958;2023-12-29T11:17:44;97252.22;;;11.48;72.63
9281;BME280;4679;47.966;7.958;2023-12-29T11:19:52;97260.75;;;11.50;72.22
9281;BME280;4679;47.966;7.958;2023-12-29T11:21:55;97278.31;;;11.51;72.39
9281;BME280;4679;47.966;7.958;2023-12-29T11:23:57;97241.69;;;11.53;71.30
9281;BME280;4679;47.966;7.958;2023-12-29T11:25:59;97279.44;;;11.55;71.67
9281;BME280;4679;47.966;7.958;2023-12-29T11:28:02;97252.38;;;11.58;71.92
9281;BME280;4679;47.966;7.958;2023-12-29T11:30:05;97247.06;;;11.58;70.89
9281;BME280;4679;47.966;7.958;2023-12-29T11:32:11;97242.31;;;11.60;70.79
9281;BME280;4679;47.966;7.958;2023-12-29T11:34:17;97247.91;;;11.63;71.48
9281;BME280;4679;47.966;7.958;2023-12-29T11:36:26;97231.47;;;11.67;70.50
9281;BME280;4679;47.966;7.958;2023-12-29T11:38:44;97242.66;;;11.69;71.02
9281;BME280;4679;47.966;7.958;2023-12-29T11:40:53;97236.56;;;11.68;70.39
9281;BME280;4679;47.966;7.958;2023-12-29T11:43:01;97217.78;;;11.75;70.53
9281;BME280;4679;47.966;7.958;2023-12-29T11:45:28;97243.13;;;11.82;69.83
9281;BME280;4679;47.966;7.958;2023-12-29T11:47:35;97226.13;;;12.05;70.00
9281;BME280;4679;47.966;7.958;2023-12-29T11:50:00;97228.59;;;11.90;69.53
9281;BME280;4679;47.966;7.958;2023-12-29T11:52:03;97218.09;;;11.78;69.33
9281;BME280;4679;47.966;7.958;2023-12-29T11:54:06;97223.09;;;11.75;69.35
9281;BME280;4679;47.966;7.958;2023-12-29T11:56:14;97232.59;;;11.71;69.70
9281;BME280;4679;47.966;7.958;2023-12-29T11:58:25;97217.38;;;11.66;69.92
9281;BME280;4679;47.966;7.958;2023-12-29T12:00:41;97229.88;;;11.66;70.06
9281;BME280;4679;47.966;7.958;2023-12-29T12:02:44;97215.44;;;11.78;69.23
9281;BME280;4679;47.966;7.958;2023-12-29T12:04:45;97221.28;;;12.02;68.90
9281;BME280;4679;47.966;7.958;2023-12-29T12:06:47;97216.69;;;12.19;68.08
9281;BME280;4679;47.966;7.958;2023-12-29T12:09:21;97211.16;;;12.26;69.00
9281;BME280;4679;47.966;7.958;2023-12-29T12:11:41;97211.16;;;12.26;68.71
9281;BME280;4679;47.966;7.958;2023-12-29T12:13:44;97197.50;;;12.17;68.53
9281;BME280;4679;47.966;7.958;2023-12-29T12:15:45;97190.69;;;12.00;69.05
9281;BME280;4679;47.966;7.958;2023-12-29T12:17:50;97194.56;;;11.92;69.43
9281;BME280;4679;47.966;7.958;2023-12-29T12:19:52;97188.97;;;11.88;69.43
9281;BME280;4679;47.966;7.958;2023-12-29T12:21:53;97194.78;;;11.85;68.84
9281;BME280;4679;47.966;7.958;2023-12-29T12:23:58;97176.09;;;11.80;69.52
9281;BME280;4679;47.966;7.958;2023-12-29T12:26:01;97195.22;;;11.77;69.85
9281;BME280;4679;47.966;7.958;2023-12-29T12:28:05;97188.78;;;11.73;69.36
9281;BME280;4679;47.966;7.958;2023-12-29T12:30:07;97186.19;;;11.78;68.97
9281;BME280;4679;47.966;7.958;2023-12-29T12:32:10;97186.69;;;11.75;68.90
9281;BME280;4679;47.966;7.958;2023-12-29T12:34:11;97190.44;;;11.79;69.31
9281;BME280;4679;47.966;7.958;2023-12-29T12:36:13;97186.81;;;11.85;69.11
9281;BME280;4679;47.966;7.958;2023-12-29T12:38:16;97191.66;;;11.93;68.71
9281;BME280;4679;47.966;7.958;2023-12-29T12:40:27;97191.41;;;11.95;68.85
9281;BME280;4679;47.966;7.958;2023-12-29T12:42:28;97191.72;;;11.98;69.08
9281;BME280;4679;47.966;7.958;2023-12-29T12:44:30;97180.53;;;11.96;69.20
9281;BME280;4679;47.966;7.958;2023-12-29T12:46:33;97177.22;;;12.11;68.65
9281;BME280;4679;47.966;7.958;2023-12-29T12:48:44;97182.34;;;12.18;68.57
9281;BME280;4679;47.966;7.958;2023-12-29T12:50:48;97169.63;;;12.25;68.32
9281;BME280;4679;47.966;7.958;2023-12-29T12:52:49;97170.59;;;12.14;68.04
9281;BME280;4679;47.966;7.958;2023-12-29T12:54:53;97165.19;;;12.04;68.87
9281;BME280;4679;47.966;7.958;2023-12-29T12:56:56;97173.59;;;11.95;68.20
9281;BME280;4679;47.966;7.958;2023-12-29T12:58:58;97162.38;;;11.88;68.86
9281;BME280;4679;47.966;7.958;2023-12-29T13:01:02;97178.53;;;11.82;69.45
9281;BME280;4679;47.966;7.958;2023-12-29T13:03:04;97170.72;;;11.75;69.04
9281;BME280;4679;47.966;7.958;2023-12-29T13:05:06;97161.63;;;11.71;69.57
9281;BME280;4679;47.966;7.958;2023-12-29T13:07:08;97166.72;;;11.73;68.73
9281;BME280;4679;47.966;7.958;2023-12-29T13:09:10;97161.88;;;11.70;68.92
9281;BME280;4679;47.966;7.958;2023-12-29T13:11:13;97173.81;;;11.67;68.52
9281;BME280;4679;47.966;7.958;2023-12-29T13:13:16;97179.38;;;11.66;69.28
9281;BME280;4679;47.966;7.958;2023-12-29T13:15:19;97163.41;;;11.66;69.20
9281;BME280;4679;47.966;7.958;2023-12-29T13:17:19;97157.31;;;11.65;69.50
9281;BME280;4679;47.966;7.958;2023-12-29T13:19:23;97172.69;;;11.63;69.34
9281;BME280;4679;47.966;7.958;2023-12-29T13:21:28;97171.38;;;11.60;68.75
9281;BME280;4679;47.966;7.958;2023-12-29T13:23:29;97173.47;;;11.58;68.74
9281;BME280;4679;47.966;7.958;2023-12-29T13:25:31;97171.03;;;11.57;69.04
9281;BME280;4679;47.966;7.958;2023-12-29T13:27:33;97165.16;;;11.55;69.73
9281;BME280;4679;47.966;7.958;2023-12-29T13:29:36;97167.50;;;11.51;69.28
9281;BME280;4679;47.966;7.958;2023-12-29T13:31:37;97179.44;;;11.49;69.19
9281;BME280;4679;47.966;7.958;2023-12-29T13:33:46;97151.78;;;11.45;69.27
9281;BME280;4679;47.966;7.958;2023-12-29T13:35:52;97154.94;;;11.42;70.03
9281;BME280;4679;47.966;7.958;2023-12-29T13:38:02;97163.38;;;11.39;69.49
9281;BME280;4679;47.966;7.958;2023-12-29T13:40:10;97170.78;;;11.37;69.29
9281;BME280;4679;47.966;7.958;2023-12-29T13:42:15;97163.88;;;11.36;69.91
9281;BME280;4679;47.966;7.958;2023-12-29T13:44:19;97167.56;;;11.35;70.16
9281;BME280;4679;47.966;7.958;2023-12-29T13:46:23;97180.06;;;11.34;70.12
9281;BME280;4679;47.966;7.958;2023-12-29T13:48:26;97166.78;;;11.34;70.53
9281;BME280;4679;47.966;7.958;2023-12-29T13:50:29;97171.28;;;11.34;69.67
9281;BME280;4679;47.966;7.958;2023-12-29T13:52:31;97181.84;;;11.28;70.39
9281;BME280;4679;47.966;7.958;2023-12-29T13:54:40;97171.25;;;11.28;70.88
9281;BME280;4679;47.966;7.958;2023-12-29T13:56:51;97176.78;;;11.27;70.21
9281;BME280;4679;47.966;7.958;2023-12-29T13:58:52;97178.09;;;11.24;70.44
9281;BME280;4679;47.966;7.958;2023-12-29T14:00:56;97171.72;;;11.25;70.24
9281;BME280;4679;47.966;7.958;2023-12-29T14:03:06;97176.47;;;11.23;70.02
9281;BME280;4679;47.966;7.958;2023-12-29T14:05:14;97161.91;;;11.26;70.53
9281;BME280;4679;47.966;7.958;2023-12-29T14:07:19;97172.78;;;11.24;70.63
9281;BME280;4679;47.966;7.958;2023-12-29T14:09:21;97173.00;;;11.23;71.31
9281;BME280;4679;47.966;7.958;2023-12-29T14:11:23;97178.56;;;11.21;70.29
9281;BME280;4679;47.966;7.958;2023-12-29T14:13:25;97177.75;;;11.21;71.38
9281;BME280;4679;47.966;7.958;2023-12-29T14:15:26;97173.25;;;11.21;70.36
9281;BME280;4679;47.966;7.958;2023-12-29T14:17:27;97174.31;;;11.20;71.50
9281;BME280;4679;47.966;7.958;2023-12-29T14:19:35;97177.44;;;11.17;70.40
9281;BME280;4679;47.966;7.958;2023-12-29T14:21:37;97175.34;;;11.19;70.91
9281;BME280;4679;47.966;7.958;2023-12-29T14:23:39;97187.81;;;11.19;70.98
9281;BME280;4679;47.966;7.958;2023-12-29T14:25:40;97166.56;;;11.19;71.08
9281;BME280;4679;47.966;7.958;2023-12-29T14:27:42;97174.53;;;11.19;71.85
9281;BME280;4679;47.966;7.958;2023-12-29T14:29:43;97182.75;;;11.17;71.26
9281;BME280;4679;47.966;7.958;2023-12-29T14:31:45;97165.53;;;11.20;71.76
9281;BME280;4679;47.966;7.958;2023-12-29T14:33:46;97173.97;;;11.17;70.84
9281;BME280;4679;47.966;7.958;2023-12-29T14:35:49;97166.00;;;11.17;71.25
9281;BME280;4679;47.966;7.958;2023-12-29T14:37:51;97190.97;;;11.16;71.57
9281;BME280;4679;47.966;7.958;2023-12-29T14:39:52;97169.72;;;11.16;71.62
9281;BME280;4679;47.966;7.958;2023-12-29T14:41:55;97164.16;;;11.17;72.00
9281;BME280;4679;47.966;7.958;2023-12-29T14:43:56;97176.41;;;11.18;71.17
9281;BME280;4679;47.966;7.958;2023-12-29T14:45:58;97170.03;;;11.19;71.94
9281;BME280;4679;47.966;7.958;2023-12-29T14:47:59;97166.34;;;11.20;71.09
9281;BME280;4679;47.966;7.958;2023-12-29T14:50:01;97181.16;;;11.16;71.00
9281;BME280;4679;47.966;7.958;2023-12-29T14:52:04;97172.13;;;11.17;71.66
9281;BME280;4679;47.966;7.958;2023-12-29T14:54:06;97167.88;;;11.16;71.78
9281;BME280;4679;47.966;7.958;2023-12-29T14:56:07;97164.41;;;11.16;71.27
9281;BME280;4679;47.966;7.958;2023-12-29T14:58:08;97166.25;;;11.15;71.45
9281;BME280;4679;47.966;7.958;2023-12-29T15:00:11;97152.22;;;11.15;71.40
9281;BME280;4679;47.966;7.958;2023-12-29T15:02:12;97161.50;;;11.17;71.41
9281;BME280;4679;47.966;7.958;2023-12-29T15:04:14;97165.22;;;11.16;71.09
9281;BME280;4679;47.966;7.958;2023-12-29T15:06:15;97175.84;;;11.16;72.32
9281;BME280;4679;47.966;7.958;2023-12-29T15:08:18;97171.09;;;11.18;71.70
9281;BME280;4679;47.966;7.958;2023-12-29T15:10:19;97156.44;;;11.16;72.60
9281;BME280;4679;47.966;7.958;2023-12-29T15:12:21;97168.38;;;11.13;71.65
9281;BME280;4679;47.966;7.958;2023-12-29T15:14:23;97164.91;;;11.13;72.27
9281;BME280;4679;47.966;7.958;2023-12-29T15:16:24;97158.81;;;11.12;72.17
9281;BME280;4679;47.966;7.958;2023-12-29T15:18:25;97165.16;;;11.11;71.84
9281;BME280;4679;47.966;7.958;2023-12-29T15:20:27;97177.16;;;11.14;71.83
9281;BME280;4679;47.966;7.958;2023-12-29T15:22:28;97175.78;;;11.11;72.72
9281;BME280;4679;47.966;7.958;2023-12-29T15:24:31;97182.16;;;11.10;72.20
9281;BME280;4679;47.966;7.958;2023-12-29T15:26:33;97164.34;;;11.11;72.13
9281;BME280;4679;47.966;7.958;2023-12-29T15:28:33;97165.97;;;11.12;72.02
9281;BME280;4679;47.966;7.958;2023-12-29T15:30:36;97166.47;;;11.09;72.23
9281;BME280;4679;47.966;7.958;2023-12-29T15:32:37;97168.31;;;11.08;72.30
9281;BME280;4679;47.966;7.958;2023-12-29T15:34:39;97170.72;;;11.10;71.74
9281;BME280;4679;47.966;7.958;2023-12-29T15:36:40;97173.06;;;11.06;72.92
9281;BME280;4679;47.966;7.958;2023-12-29T15:38:42;97172.00;;;11.07;71.90
9281;BME280;4679;47.966;7.958;2023-12-29T15:40:45;97177.88;;;11.09;72.41
9281;BME280;4679;47.966;7.958;2023-12-29T15:42:46;97179.97;;;11.07;72.76
9281;BME280;4679;47.966;7.958;2023-12-29T15:44:47;97169.59;;;11.06;73.35
9281;BME280;4679;47.966;7.958;2023-12-29T15:46:48;97166.38;;;11.04;73.17
9281;BME280;4679;47.966;7.958;2023-12-29T15:48:51;97185.38;;;11.12;73.02
9281;BME280;4679;47.966;7.958;2023-12-29T15:50:52;97164.16;;;11.17;72.60
9281;BME280;4679;47.966;7.958;2023-12-29T15:52:54;97173.75;;;11.18;72.09
9281;BME280;4679;47.966;7.958;2023-12-29T15:54:55;97166.56;;;11.19;72.22
9281;BME280;4679;47.966;7.958;2023-12-29T15:56:57;97159.09;;;11.16;72.55
9281;BME280;4679;47.966;7.958;2023-12-29T15:58:59;97167.06;;;11.16;71.65
9281;BME280;4679;47.966;7.958;2023-12-29T16:01:00;97160.72;;;11.17;71.86
9281;BME280;4679;47.966;7.958;2023-12-29T16:03:02;97157.81;;;11.18;71.65
9281;BME280;4679;47.966;7.958;2023-12-29T16:05:04;97155.63;;;11.15;71.83
9281;BME280;4679;47.966;7.958;2023-12-29T16:07:06;97161.47;;;11.12;72.33
9281;BME280;4679;47.966;7.958;2023-12-29T16:09:07;97156.72;;;11.14;72.10
9281;BME280;4679;47.966;7.958;2023-12-29T16:11:08;97162.56;;;11.16;71.52
9281;BME280;4679;47.966;7.958;2023-12-29T16:13:11;97172.13;;;11.17;71.36
9281;BME280;4679;47.966;7.958;2023-12-29T16:15:13;97157.56;;;11.20;72.37
9281;BME280;4679;47.966;7.958;2023-12-29T16:17:15;97163.69;;;11.20;71.76
9281;BME280;4679;47.966;7.958;2023-12-29T16:19:16;97163.69;;;11.20;70.91
9281;BME280;4679;47.966;7.958;2023-12-29T16:21:17;97158.28;;;11.15;71.44
9281;BME280;4679;47.966;7.958;2023-12-29T16:23:19;97156.72;;;11.14;71.92
9281;BME280;4679;47.966;7.958;2023-12-29T16:25:20;97158.28;;;11.15;71.51
9281;BME280;4679;47.966;7.958;2023-12-29T16:27:22;97161.50;;;11.17;71.29
9281;BME280;4679;47.966;7.958;2023-12-29T16:29:24;97147.66;;;11.15;71.95
9281;BME280;4679;47.966;7.958;2023-12-29T16:31:25;97180.06;;;11.12;72.19
9281;BME280;4679;47.966;7.958;2023-12-29T16:33:29;97146.91;;;11.15;71.38
9281;BME280;4679;47.966;7.958;2023-12-29T16:35:33;97156.19;;;11.17;71.77
9281;BME280;4679;47.966;7.958;2023-12-29T16:37:36;97148.75;;;11.14;71.43
9281;BME280;4679;47.966;7.958;2023-12-29T16:39:39;97143.44;;;11.14;71.11
9281;BME280;4679;47.966;7.958;2023-12-29T16:41:43;97149.78;;;11.13;70.90
9281;BME280;4679;47.966;7.958;2023-12-29T16:43:45;97142.88;;;11.12;70.67
9281;BME280;4679;47.966;7.958;2023-12-29T16:45:47;97151.09;;;11.11;70.94
9281;BME280;4679;47.966;7.958;2023-12-29T16:47:49;97141.75;;;11.08;71.04
9281;BME280;4679;47.966;7.958;2023-12-29T16:49:50;97144.88;;;11.05;71.30
9281;BME280;4679;47.966;7.958;2023-12-29T16:51:52;97143.84;;;11.06;70.99
9281;BME280;4679;47.966;7.958;2023-12-29T16:53:53;97142.56;;;11.09;70.55
9281;BME280;4679;47.966;7.958;2023-12-29T16:55:55;97144.41;;;11.08;70.57
9281;BME280;4679;47.966;7.958;2023-12-29T16:57:57;97152.84;;;11.05;70.39
9281;BME280;4679;47.966;7.958;2023-12-29T16:59:58;97150.94;;;11.01;71.09
9281;BME280;4679;47.966;7.958;2023-12-29T17:02:01;97143.72;;;10.96;70.99
9281;BME280;4679;47.966;7.958;2023-12-29T17:04:08;97161.19;;;10.92;71.00
9281;BME280;4679;47.966;7.958;2023-12-29T17:06:09;97150.56;;;10.92;70.74
9281;BME280;4679;47.966;7.958;2023-12-29T17:08:10;97163.25;;;10.90;71.45
9281;BME280;4679;47.966;7.958;2023-12-29T17:10:11;97160.63;;;10.90;70.77
9281;BME280;4679;47.966;7.958;2023-12-29T17:12:13;97155.31;;;10.90;70.07
9281;BME280;4679;47.966;7.958;2023-12-29T17:14:15;97154.25;;;10.91;70.80
9281;BME280;4679;47.966;7.958;2023-12-29T17:16:17;97155.63;;;10.93;70.23
9281;BME280;4679;47.966;7.958;2023-12-29T17:18:19;97164.31;;;10.89;69.61
9281;BME280;4679;47.966;7.958;2023-12-29T17:20:20;97166.84;;;10.79;70.04
9281;BME280;4679;47.966;7.958;2023-12-29T17:22:22;97177.13;;;10.75;70.63
9281;BME280;4679;47.966;7.958;2023-12-29T17:24:23;97167.06;;;10.77;69.89
9281;BME280;4679;47.966;7.958;2023-12-29T17:26:25;97178.16;;;10.74;70.17
9281;BME280;4679;47.966;7.958;2023-12-29T17:28:26;97156.59;;;10.71;70.79
9281;BME280;4679;47.966;7.958;2023-12-29T17:30:28;97172.06;;;10.74;69.90
9281;BME280;4679;47.966;7.958;2023-12-29T17:32:30;97181.63;;;10.75;70.32
9281;BME280;4679;47.966;7.958;2023-12-29T17:34:33;97179.69;;;10.70;70.04
9281;BME280;4679;47.966;7.958;2023-12-29T17:36:34;97182.06;;;10.67;69.51
9281;BME280;4679;47.966;7.958;2023-12-29T17:38:35;97184.94;;;10.65;70.62
9281;BME280;4679;47.966;7.958;2023-12-29T17:40:37;97184.94;;;10.65;69.79
9281;BME280;4679;47.966;7.958;2023-12-29T17:42:38;97179.88;;;10.64;68.76
9281;BME280;4679;47.966;7.958;2023-12-29T17:44:41;97191.53;;;10.63;69.74
9281;BME280;4679;47.966;7.958;2023-12-29T17:46:42;97182.19;;;10.60;69.30
9281;BME280;4679;47.966;7.958;2023-12-29T17:48:44;97186.13;;;10.57;69.24
9281;BME280;4679;47.966;7.958;2023-12-29T17:50:47;97187.69;;;10.53;69.94
9281;BME280;4679;47.966;7.958;2023-12-29T17:52:47;97191.38;;;10.52;69.38
9281;BME280;4679;47.966;7.958;2023-12-29T17:54:49;97192.66;;;10.50;69.03
9281;BME280;4679;47.966;7.958;2023-12-29T17:56:49;97202.69;;;10.48;69.30
9281;BME280;4679;47.966;7.958;2023-12-29T17:58:51;97186.78;;;10.48;69.74
9281;BME280;4679;47.966;7.958;2023-12-29T18:00:53;97189.69;;;10.46;69.69
9281;BME280;4679;47.966;7.958;2023-12-29T18:02:54;97193.13;;;10.47;69.34
9281;BME280;4679;47.966;7.958;2023-12-29T18:04:56;97197.63;;;10.46;69.59
9281;BME280;4679;47.966;7.958;2023-12-29T18:06:59;97197.16;;;10.49;69.62
9281;BME280;4679;47.966;7.958;2023-12-29T18:09:00;97192.91;;;10.48;69.41
9281;BME280;4679;47.966;7.958;2023-12-29T18:11:03;97203.19;;;10.45;68.93
9281;BME280;4679;47.966;7.958;2023-12-29T18:13:05;97199.38;;;10.41;69.13
9281;BME280;4679;47.966;7.958;2023-12-29T18:15:08;97199.09;;;10.37;68.45
9281;BME280;4679;47.966;7.958;2023-12-29T18:17:11;97206.25;;;10.37;68.96
9281;BME280;4679;47.966;7.958;2023-12-29T18:19:14;97201.66;;;10.32;68.72
9281;BME280;4679;47.966;7.958;2023-12-29T18:21:22;97199.78;;;10.33;69.87
9281;BME280;4679;47.966;7.958;2023-12-29T18:23:25;97203.81;;;10.35;68.82
9281;BME280;4679;47.966;7.958;2023-12-29T18:25:27;97204.88;;;10.34;69.98
9281;BME280;4679;47.966;7.958;2023-12-29T18:27:28;97211.78;;;10.35;69.40
9281;BME280;4679;47.966;7.958;2023-12-29T18:29:33;97216.75;;;10.32;68.77
9281;BME280;4679;47.966;7.958;2023-12-29T18:31:40;97217.00;;;10.30;69.00
9281;BME280;4679;47.966;7.958;2023-12-29T18:33:42;97220.44;;;10.31;69.38
9281;BME280;4679;47.966;7.958;2023-12-29T18:35:43;97213.53;;;10.30;68.70
9281;BME280;4679;47.966;7.958;2023-12-29T18:37:45;97213.28;;;10.31;68.59
9281;BME280;4679;47.966;7.958;2023-12-29T18:39:48;97227.03;;;10.28;68.81
9281;BME280;4679;47.966;7.958;2023-12-29T18:41:50;97227.59;;;10.30;68.77
9281;BME280;4679;47.966;7.958;2023-12-29T18:43:52;97225.19;;;10.29;68.66
9281;BME280;4679;47.966;7.958;2023-12-29T18:45:53;97214.34;;;10.30;68.98
9281;BME280;4679;47.966;7.958;2023-12-29T18:47:55;97226.00;;;10.29;69.16
9281;BME280;4679;47.966;7.958;2023-12-29T18:49:56;97220.13;;;10.27;69.03
9281;BME280;4679;47.966;7.958;2023-12-29T18:51:58;97228.31;;;10.26;69.04
9281;BME280;4679;47.966;7.958;2023-12-29T18:53:59;97226.69;;;10.25;69.06
9281;BME280;4679;47.966;7.958;2023-12-29T18:56:05;97217.22;;;10.29;68.94